Terminal Aerodrome Forecast
Issued by NWS Amarillo, TX

Home | Current Version | Previous Version | Text Only | Print | Product List | Glossary On
Versions: 1 2 3 4 5 6 7 8 9 10 11 12 13 14 15
000
FTUS44 KAMA 281700 RRA
TAFGUY
TAF
KGUY 281750Z 2818/2918 02014KT P6SM FEW120 SCT250
     FM282000 05011KT P6SM FEW090 SCT300
     FM290200 02007KT P6SM BKN070 OVC300 PROB30 2904/2909 -TSRA
      BKN060CB=

USA.gov is the U.S. government's official web portal to all federal, state and local government web resources and services.